Warning: fopen(/var/www/metroair/shared/private/wxdata/metar/AVWX/metar_KGSP): failed to open stream: Permission denied in /var/www/metroair/shared/private/library/orig_library/lib_airport.php on line 346

Warning: fwrite() expects parameter 1 to be resource, boolean given in /var/www/metroair/shared/private/library/orig_library/lib_airport.php on line 347

Warning: fclose() expects parameter 1 to be resource, boolean given in /var/www/metroair/shared/private/library/orig_library/lib_airport.php on line 348

MET5208 - Greenville - Spartanburg to Boston

Embraer ERJ-170LR
N924AG
2 hrs 00 mins
691 nm
Scheduled - Daily

Bid/PiRep Status

Bid was submitted on Jan 02 2017.

PiRep # 74570: Approved by Sean Doyle on January 2nd, 2017 15:08 UTC

Departure

Departing from
Greenville - Spartanburg (GSP)
Departure gate
Ramp
Scheduled Departure
GMT 1600
Local 1100
METAR KGSP 220553Z AUTO 01006KT 9SM -RA OVC018 13/12 A3001 RMK AO2 SLP158 P0007 60007 T01330117 10172 20133 58015
TAF
  • No charts available

Arrival

Arriving at
Boston (BOS)
Arrival gate
Scheduled Arrival
GMT 1800
Local 1300
METAR KBOS 220554Z 21010KT 10SM FEW090 OVC130 03/M01 A3009 RMK AO2 SLP189 T00331006 10044 20028 57024
TAF KBOS 220522Z 2206/2312 21007KT P6SM BKN120 FM221500 19004KT P6SM SCT250 FM230300 24004KT P6SM SCT040

Route Map

Planning Resources

KGSP TEMKY SYCAM LATAS TYKES WIPOR KBOS
SPA V605 GENOD GSO J14 RIC
SPA RDU FAK OTT6
SPA J37 GVE J42 OTT RAVNN5
SPA JAC EVING LOOEY JAXSN CREWE FAK OGATE BRV OTT DEALE RAVNN
Route:
OFP Layout:
Units:
Detailed Navlog:
ETOPS Planning:
Plan Stepclimbs:
Runway Analysis:
Include NOTAMS:
FIR NOTAMS:
Flight Maps:

Return Flights

MET5207
Embraer ERJ-170LR
1330 GMT
MET5209
Embraer ERJ-170LR
2230 GMT

Popularity

Hub Current Bids PiReps this month Total PiReps
KMCI 0 0 2
KLAX 0 0 0
KBOS 0 0 2